sensor_id;sensor_type;location;lat;lon;timestamp;temperature;humidity
14577;DHT22;7375;46.072;14.470;2022-12-07T00:00:51;20.20;60.70
14577;DHT22;7375;46.072;14.470;2022-12-07T00:03:17;20.20;60.70
14577;DHT22;7375;46.072;14.470;2022-12-07T00:05:44;20.10;60.70
14577;DHT22;7375;46.072;14.470;2022-12-07T00:08:11;20.10;60.70
14577;DHT22;7375;46.072;14.470;2022-12-07T00:10:38;20.20;60.80
14577;DHT22;7375;46.072;14.470;2022-12-07T00:13:04;20.10;60.70
14577;DHT22;7375;46.072;14.470;2022-12-07T00:15:33;20.10;60.70
14577;DHT22;7375;46.072;14.470;2022-12-07T00:18:01;20.10;60.80
14577;DHT22;7375;46.072;14.470;2022-12-07T00:20:28;20.10;60.80
14577;DHT22;7375;46.072;14.470;2022-12-07T00:22:55;20.10;60.90
14577;DHT22;7375;46.072;14.470;2022-12-07T00:25:22;20.30;60.90
14577;DHT22;7375;46.072;14.470;2022-12-07T00:27:49;21.90;56.40
14577;DHT22;7375;46.072;14.470;2022-12-07T00:30:15;23.70;52.40
14577;DHT22;7375;46.072;14.470;2022-12-07T00:32:42;24.60;49.80
14577;DHT22;7375;46.072;14.470;2022-12-07T00:35:11;25.30;48.50
14577;DHT22;7375;46.072;14.470;2022-12-07T00:37:37;25.80;47.30
14577;DHT22;7375;46.072;14.470;2022-12-07T00:40:05;25.90;46.50
14577;DHT22;7375;46.072;14.470;2022-12-07T00:42:31;26.20;46.10
14577;DHT22;7375;46.072;14.470;2022-12-07T00:44:58;26.20;45.90
14577;DHT22;7375;46.072;14.470;2022-12-07T00:47:25;26.30;45.60
14577;DHT22;7375;46.072;14.470;2022-12-07T00:49:52;26.50;45.60
14577;DHT22;7375;46.072;14.470;2022-12-07T00:52:20;26.50;45.20
14577;DHT22;7375;46.072;14.470;2022-12-07T00:54:47;26.60;45.10
14577;DHT22;7375;46.072;14.470;2022-12-07T00:57:13;26.60;45.00
14577;DHT22;7375;46.072;14.470;2022-12-07T00:59:40;26.70;44.80
14577;DHT22;7375;46.072;14.470;2022-12-07T01:02:07;26.60;44.80
14577;DHT22;7375;46.072;14.470;2022-12-07T01:04:34;26.80;44.60
14577;DHT22;7375;46.072;14.470;2022-12-07T01:07:01;26.80;44.60
14577;DHT22;7375;46.072;14.470;2022-12-07T01:09:29;26.80;44.60
14577;DHT22;7375;46.072;14.470;2022-12-07T01:11:56;26.70;44.40
14577;DHT22;7375;46.072;14.470;2022-12-07T01:14:22;26.80;44.40
14577;DHT22;7375;46.072;14.470;2022-12-07T01:16:49;26.80;44.50
14577;DHT22;7375;46.072;14.470;2022-12-07T01:19:16;26.80;44.40
14577;DHT22;7375;46.072;14.470;2022-12-07T01:21:43;26.80;44.30
14577;DHT22;7375;46.072;14.470;2022-12-07T01:24:10;26.80;44.30
14577;DHT22;7375;46.072;14.470;2022-12-07T01:26:38;26.80;44.20
14577;DHT22;7375;46.072;14.470;2022-12-07T01:29:05;26.90;44.20
14577;DHT22;7375;46.072;14.470;2022-12-07T01:31:32;26.70;44.30
14577;DHT22;7375;46.072;14.470;2022-12-07T01:33:59;26.80;44.20
14577;DHT22;7375;46.072;14.470;2022-12-07T01:36:26;26.90;44.30
14577;DHT22;7375;46.072;14.470;2022-12-07T01:38:54;26.90;44.10
14577;DHT22;7375;46.072;14.470;2022-12-07T01:41:22;26.90;44.10
14577;DHT22;7375;46.072;14.470;2022-12-07T01:44:10;26.80;44.10
14577;DHT22;7375;46.072;14.470;2022-12-07T01:46:38;26.90;44.00
14577;DHT22;7375;46.072;14.470;2022-12-07T01:49:05;26.90;44.00
14577;DHT22;7375;46.072;14.470;2022-12-07T01:51:32;26.90;43.90
14577;DHT22;7375;46.072;14.470;2022-12-07T01:53:59;26.90;43.80
14577;DHT22;7375;46.072;14.470;2022-12-07T01:56:27;27.00;43.80
14577;DHT22;7375;46.072;14.470;2022-12-07T01:58:55;27.00;43.80
14577;DHT22;7375;46.072;14.470;2022-12-07T02:01:24;26.90;43.80
14577;DHT22;7375;46.072;14.470;2022-12-07T02:03:51;26.80;43.90
14577;DHT22;7375;46.072;14.470;2022-12-07T02:06:19;26.90;43.90
14577;DHT22;7375;46.072;14.470;2022-12-07T02:08:47;26.80;44.10
14577;DHT22;7375;46.072;14.470;2022-12-07T02:11:14;26.80;43.90
14577;DHT22;7375;46.072;14.470;2022-12-07T02:13:41;26.90;43.90
14577;DHT22;7375;46.072;14.470;2022-12-07T02:16:12;26.90;43.90
14577;DHT22;7375;46.072;14.470;2022-12-07T02:18:52;26.90;44.10
14577;DHT22;7375;46.072;14.470;2022-12-07T02:21:24;26.90;44.00
14577;DHT22;7375;46.072;14.470;2022-12-07T02:24:04;26.90;43.90
14577;DHT22;7375;46.072;14.470;2022-12-07T02:29:22;26.90;43.80
14577;DHT22;7375;46.072;14.470;2022-12-07T02:31:52;26.90;43.70
14577;DHT22;7375;46.072;14.470;2022-12-07T02:34:21;26.90;43.70
14577;DHT22;7375;46.072;14.470;2022-12-07T02:36:52;27.00;43.60
14577;DHT22;7375;46.072;14.470;2022-12-07T02:39:25;27.00;43.50
14577;DHT22;7375;46.072;14.470;2022-12-07T02:41:56;26.90;43.70
14577;DHT22;7375;46.072;14.470;2022-12-07T02:44:27;26.90;43.80
14577;DHT22;7375;46.072;14.470;2022-12-07T02:46:56;26.90;43.70
14577;DHT22;7375;46.072;14.470;2022-12-07T02:49:24;26.90;43.80
14577;DHT22;7375;46.072;14.470;2022-12-07T02:51:52;26.90;43.60
14577;DHT22;7375;46.072;14.470;2022-12-07T02:54:20;26.90;43.70
14577;DHT22;7375;46.072;14.470;2022-12-07T02:56:48;26.90;43.70
14577;DHT22;7375;46.072;14.470;2022-12-07T02:59:17;26.90;43.70
14577;DHT22;7375;46.072;14.470;2022-12-07T03:01:51;27.00;43.50
14577;DHT22;7375;46.072;14.470;2022-12-07T03:04:27;27.00;43.60
14577;DHT22;7375;46.072;14.470;2022-12-07T03:06:56;26.90;43.60
14577;DHT22;7375;46.072;14.470;2022-12-07T03:09:26;27.00;43.60
14577;DHT22;7375;46.072;14.470;2022-12-07T03:11:55;26.90;43.60
14577;DHT22;7375;46.072;14.470;2022-12-07T03:14:25;26.90;43.80
14577;DHT22;7375;46.072;14.470;2022-12-07T03:16:57;26.80;43.70
14577;DHT22;7375;46.072;14.470;2022-12-07T03:19:26;26.90;43.70
14577;DHT22;7375;46.072;14.470;2022-12-07T03:21:54;27.00;43.70
14577;DHT22;7375;46.072;14.470;2022-12-07T03:24:24;26.90;43.70
14577;DHT22;7375;46.072;14.470;2022-12-07T03:26:53;26.90;43.70
14577;DHT22;7375;46.072;14.470;2022-12-07T03:29:23;26.90;43.80
14577;DHT22;7375;46.072;14.470;2022-12-07T03:31:53;27.00;43.80
14577;DHT22;7375;46.072;14.470;2022-12-07T03:34:23;27.00;43.60
14577;DHT22;7375;46.072;14.470;2022-12-07T03:36:52;27.00;43.70
14577;DHT22;7375;46.072;14.470;2022-12-07T03:39:22;26.90;43.80
14577;DHT22;7375;46.072;14.470;2022-12-07T03:41:50;26.90;43.80
14577;DHT22;7375;46.072;14.470;2022-12-07T03:44:17;26.90;44.50
14577;DHT22;7375;46.072;14.470;2022-12-07T03:46:46;26.90;44.00
14577;DHT22;7375;46.072;14.470;2022-12-07T03:49:18;26.90;44.00
14577;DHT22;7375;46.072;14.470;2022-12-07T03:51:50;26.90;44.10
14577;DHT22;7375;46.072;14.470;2022-12-07T03:54:19;26.90;43.90
14577;DHT22;7375;46.072;14.470;2022-12-07T03:56:49;26.90;43.90
14577;DHT22;7375;46.072;14.470;2022-12-07T03:59:16;26.90;44.00
14577;DHT22;7375;46.072;14.470;2022-12-07T04:01:43;26.90;44.00
14577;DHT22;7375;46.072;14.470;2022-12-07T04:04:10;26.90;44.00
14577;DHT22;7375;46.072;14.470;2022-12-07T04:06:37;26.90;44.00
14577;DHT22;7375;46.072;14.470;2022-12-07T04:09:05;26.90;44.00
14577;DHT22;7375;46.072;14.470;2022-12-07T04:11:32;27.00;44.00
14577;DHT22;7375;46.072;14.470;2022-12-07T04:13:58;26.90;44.10
14577;DHT22;7375;46.072;14.470;2022-12-07T04:16:42;27.00;44.00
14577;DHT22;7375;46.072;14.470;2022-12-07T04:19:09;26.90;44.00
14577;DHT22;7375;46.072;14.470;2022-12-07T04:21:36;26.90;44.20
14577;DHT22;7375;46.072;14.470;2022-12-07T04:24:05;26.90;44.10
14577;DHT22;7375;46.072;14.470;2022-12-07T04:26:31;27.10;43.80
14577;DHT22;7375;46.072;14.470;2022-12-07T04:28:58;27.20;43.60
14577;DHT22;7375;46.072;14.470;2022-12-07T04:31:25;27.40;43.30
14577;DHT22;7375;46.072;14.470;2022-12-07T04:33:52;27.50;43.30
14577;DHT22;7375;46.072;14.470;2022-12-07T04:36:18;27.70;42.90
14577;DHT22;7375;46.072;14.470;2022-12-07T04:38:46;27.80;42.60
14577;DHT22;7375;46.072;14.470;2022-12-07T04:41:14;28.00;42.30
14577;DHT22;7375;46.072;14.470;2022-12-07T04:43:41;28.20;42.10
14577;DHT22;7375;46.072;14.470;2022-12-07T04:46:07;28.50;41.70
14577;DHT22;7375;46.072;14.470;2022-12-07T04:48:34;28.70;41.20
14577;DHT22;7375;46.072;14.470;2022-12-07T04:51:02;29.00;40.80
14577;DHT22;7375;46.072;14.470;2022-12-07T04:53:29;29.40;40.20
14577;DHT22;7375;46.072;14.470;2022-12-07T04:55:55;29.80;39.60
14577;DHT22;7375;46.072;14.470;2022-12-07T04:58:23;30.10;39.10
14577;DHT22;7375;46.072;14.470;2022-12-07T05:00:53;30.40;38.60
14577;DHT22;7375;46.072;14.470;2022-12-07T05:03:20;30.70;38.10
14577;DHT22;7375;46.072;14.470;2022-12-07T05:05:47;30.80;38.00
14577;DHT22;7375;46.072;14.470;2022-12-07T05:08:13;30.80;38.00
14577;DHT22;7375;46.072;14.470;2022-12-07T05:10:40;30.70;38.20
14577;DHT22;7375;46.072;14.470;2022-12-07T05:13:07;30.80;37.90
14577;DHT22;7375;46.072;14.470;2022-12-07T05:15:35;30.80;37.80
14577;DHT22;7375;46.072;14.470;2022-12-07T05:18:02;30.70;38.10
14577;DHT22;7375;46.072;14.470;2022-12-07T05:20:29;30.70;38.00
14577;DHT22;7375;46.072;14.470;2022-12-07T05:22:56;30.60;38.30
14577;DHT22;7375;46.072;14.470;2022-12-07T05:25:23;30.70;38.20
14577;DHT22;7375;46.072;14.470;2022-12-07T05:27:50;30.50;38.40
14577;DHT22;7375;46.072;14.470;2022-12-07T05:30:17;30.40;38.50
14577;DHT22;7375;46.072;14.470;2022-12-07T05:32:46;30.40;38.50
14577;DHT22;7375;46.072;14.470;2022-12-07T05:35:12;30.40;38.60
14577;DHT22;7375;46.072;14.470;2022-12-07T05:37:39;30.30;38.60
14577;DHT22;7375;46.072;14.470;2022-12-07T05:40:06;30.40;38.50
14577;DHT22;7375;46.072;14.470;2022-12-07T05:42:33;30.50;38.30
14577;DHT22;7375;46.072;14.470;2022-12-07T05:45:00;30.40;38.30
14577;DHT22;7375;46.072;14.470;2022-12-07T05:47:27;30.40;38.40
14577;DHT22;7375;46.072;14.470;2022-12-07T05:49:55;30.30;38.50
14577;DHT22;7375;46.072;14.470;2022-12-07T05:52:22;30.30;38.40
14577;DHT22;7375;46.072;14.470;2022-12-07T05:54:48;30.30;38.40
14577;DHT22;7375;46.072;14.470;2022-12-07T05:57:15;30.30;38.50
14577;DHT22;7375;46.072;14.470;2022-12-07T05:59:42;30.30;38.50
14577;DHT22;7375;46.072;14.470;2022-12-07T06:02:09;30.40;38.50
14577;DHT22;7375;46.072;14.470;2022-12-07T06:04:36;30.40;38.30
14577;DHT22;7375;46.072;14.470;2022-12-07T06:07:05;30.50;38.30
14577;DHT22;7375;46.072;14.470;2022-12-07T06:09:32;30.40;38.40
14577;DHT22;7375;46.072;14.470;2022-12-07T06:11:59;30.40;38.40
14577;DHT22;7375;46.072;14.470;2022-12-07T06:14:43;30.40;38.40
14577;DHT22;7375;46.072;14.470;2022-12-07T06:17:10;30.40;38.30
14577;DHT22;7375;46.072;14.470;2022-12-07T06:19:38;30.30;38.30
14577;DHT22;7375;46.072;14.470;2022-12-07T06:22:06;30.20;39.10
14577;DHT22;7375;46.072;14.470;2022-12-07T06:24:34;30.40;38.30
14577;DHT22;7375;46.072;14.470;2022-12-07T06:27:01;30.30;38.30
14577;DHT22;7375;46.072;14.470;2022-12-07T06:29:28;30.30;38.30
14577;DHT22;7375;46.072;14.470;2022-12-07T06:31:54;30.40;38.30
14577;DHT22;7375;46.072;14.470;2022-12-07T06:34:22;30.40;38.10
14577;DHT22;7375;46.072;14.470;2022-12-07T06:36:49;30.40;38.30
14577;DHT22;7375;46.072;14.470;2022-12-07T06:39:18;30.30;39.00
14577;DHT22;7375;46.072;14.470;2022-12-07T06:41:45;30.10;38.50
14577;DHT22;7375;46.072;14.470;2022-12-07T06:44:12;30.00;38.80
14577;DHT22;7375;46.072;14.470;2022-12-07T06:46:39;29.90;38.90
14577;DHT22;7375;46.072;14.470;2022-12-07T06:49:06;29.80;39.00
14577;DHT22;7375;46.072;14.470;2022-12-07T06:51:33;29.90;39.10
14577;DHT22;7375;46.072;14.470;2022-12-07T06:54:02;30.00;38.80
14577;DHT22;7375;46.072;14.470;2022-12-07T06:56:30;30.10;38.80
14577;DHT22;7375;46.072;14.470;2022-12-07T06:58:56;30.30;38.70
14577;DHT22;7375;46.072;14.470;2022-12-07T07:01:23;30.30;38.60
14577;DHT22;7375;46.072;14.470;2022-12-07T07:03:50;30.50;38.60
14577;DHT22;7375;46.072;14.470;2022-12-07T07:06:17;30.60;38.20
14577;DHT22;7375;46.072;14.470;2022-12-07T07:08:44;30.60;38.30
14577;DHT22;7375;46.072;14.470;2022-12-07T07:11:11;30.60;37.30
14577;DHT22;7375;46.072;14.470;2022-12-07T07:13:39;30.40;37.80
14577;DHT22;7375;46.072;14.470;2022-12-07T07:16:06;30.40;38.10
14577;DHT22;7375;46.072;14.470;2022-12-07T07:18:33;30.50;37.90
14577;DHT22;7375;46.072;14.470;2022-12-07T07:21:00;30.60;37.90
14577;DHT22;7375;46.072;14.470;2022-12-07T07:23:26;30.60;37.20
14577;DHT22;7375;46.072;14.470;2022-12-07T07:25:53;30.50;36.20
14577;DHT22;7375;46.072;14.470;2022-12-07T07:28:20;30.50;36.20
14577;DHT22;7375;46.072;14.470;2022-12-07T07:30:48;30.50;36.80
14577;DHT22;7375;46.072;14.470;2022-12-07T07:33:15;30.60;36.90
14577;DHT22;7375;46.072;14.470;2022-12-07T07:35:42;30.80;36.80
14577;DHT22;7375;46.072;14.470;2022-12-07T07:38:08;30.70;36.90
14577;DHT22;7375;46.072;14.470;2022-12-07T07:40:35;30.60;37.10
14577;DHT22;7375;46.072;14.470;2022-12-07T07:43:02;30.60;37.20
14577;DHT22;7375;46.072;14.470;2022-12-07T07:45:29;30.60;37.10
14577;DHT22;7375;46.072;14.470;2022-12-07T07:47:57;30.50;37.10
14577;DHT22;7375;46.072;14.470;2022-12-07T07:50:24;30.70;37.30
14577;DHT22;7375;46.072;14.470;2022-12-07T07:52:51;30.60;37.60
14577;DHT22;7375;46.072;14.470;2022-12-07T07:55:18;30.60;37.70
14577;DHT22;7375;46.072;14.470;2022-12-07T07:57:45;30.50;37.70
14577;DHT22;7375;46.072;14.470;2022-12-07T08:00:12;29.10;36.50
14577;DHT22;7375;46.072;14.470;2022-12-07T08:02:40;28.70;37.80
14577;DHT22;7375;46.072;14.470;2022-12-07T08:05:09;28.60;39.10
14577;DHT22;7375;46.072;14.470;2022-12-07T08:07:37;28.50;39.70
14577;DHT22;7375;46.072;14.470;2022-12-07T08:10:04;28.20;39.90
14577;DHT22;7375;46.072;14.470;2022-12-07T08:12:31;28.00;40.60
14577;DHT22;7375;46.072;14.470;2022-12-07T08:15:01;27.70;41.20
14577;DHT22;7375;46.072;14.470;2022-12-07T08:17:28;27.50;41.50
14577;DHT22;7375;46.072;14.470;2022-12-07T08:19:55;27.30;41.90
14577;DHT22;7375;46.072;14.470;2022-12-07T08:22:23;27.20;42.20
14577;DHT22;7375;46.072;14.470;2022-12-07T08:24:50;27.00;42.40
14577;DHT22;7375;46.072;14.470;2022-12-07T08:27:16;26.80;42.90
14577;DHT22;7375;46.072;14.470;2022-12-07T08:29:43;26.60;43.20
14577;DHT22;7375;46.072;14.470;2022-12-07T08:32:10;26.50;43.50
14577;DHT22;7375;46.072;14.470;2022-12-07T08:34:36;26.40;43.70
14577;DHT22;7375;46.072;14.470;2022-12-07T08:37:03;26.20;43.90
14577;DHT22;7375;46.072;14.470;2022-12-07T08:39:31;26.10;44.30
14577;DHT22;7375;46.072;14.470;2022-12-07T08:41:58;26.00;44.60
14577;DHT22;7375;46.072;14.470;2022-12-07T08:44:25;25.80;44.90
14577;DHT22;7375;46.072;14.470;2022-12-07T08:46:52;25.70;45.40
14577;DHT22;7375;46.072;14.470;2022-12-07T08:49:21;25.60;45.60
14577;DHT22;7375;46.072;14.470;2022-12-07T08:51:49;25.40;45.80
14577;DHT22;7375;46.072;14.470;2022-12-07T08:54:17;25.40;45.80
14577;DHT22;7375;46.072;14.470;2022-12-07T08:56:45;25.30;46.00
14577;DHT22;7375;46.072;14.470;2022-12-07T08:59:14;25.20;46.20
14577;DHT22;7375;46.072;14.470;2022-12-07T09:01:41;25.10;46.40
14577;DHT22;7375;46.072;14.470;2022-12-07T09:04:08;25.10;46.60
14577;DHT22;7375;46.072;14.470;2022-12-07T09:06:34;25.00;46.80
14577;DHT22;7375;46.072;14.470;2022-12-07T09:09:01;25.00;46.90
14577;DHT22;7375;46.072;14.470;2022-12-07T09:11:29;24.80;47.00
14577;DHT22;7375;46.072;14.470;2022-12-07T09:13:57;24.70;47.10
14577;DHT22;7375;46.072;14.470;2022-12-07T09:16:24;24.60;47.40
14577;DHT22;7375;46.072;14.470;2022-12-07T09:18:50;24.50;47.50
14577;DHT22;7375;46.072;14.470;2022-12-07T09:21:17;24.50;47.70
14577;DHT22;7375;46.072;14.470;2022-12-07T09:23:44;24.50;47.90
14577;DHT22;7375;46.072;14.470;2022-12-07T09:26:11;24.40;47.90
14577;DHT22;7375;46.072;14.470;2022-12-07T09:28:37;24.30;48.00
14577;DHT22;7375;46.072;14.470;2022-12-07T09:31:06;24.30;48.20
14577;DHT22;7375;46.072;14.470;2022-12-07T09:33:32;24.20;48.30
14577;DHT22;7375;46.072;14.470;2022-12-07T09:35:59;24.20;48.40
14577;DHT22;7375;46.072;14.470;2022-12-07T09:38:26;24.20;48.70
14577;DHT22;7375;46.072;14.470;2022-12-07T09:40:55;24.20;48.80
14577;DHT22;7375;46.072;14.470;2022-12-07T09:43:22;24.10;48.90
14577;DHT22;7375;46.072;14.470;2022-12-07T09:45:50;24.20;49.00
14577;DHT22;7375;46.072;14.470;2022-12-07T09:48:20;24.10;49.00
14577;DHT22;7375;46.072;14.470;2022-12-07T09:50:48;24.10;49.10
14577;DHT22;7375;46.072;14.470;2022-12-07T09:53:16;24.00;49.20
14577;DHT22;7375;46.072;14.470;2022-12-07T09:55:47;24.00;49.40
14577;DHT22;7375;46.072;14.470;2022-12-07T09:58:17;24.00;49.20
14577;DHT22;7375;46.072;14.470;2022-12-07T10:00:45;24.00;49.40
14577;DHT22;7375;46.072;14.470;2022-12-07T10:03:12;24.00;49.40
14577;DHT22;7375;46.072;14.470;2022-12-07T10:05:41;24.00;49.60
14577;DHT22;7375;46.072;14.470;2022-12-07T10:08:09;24.00;49.70
14577;DHT22;7375;46.072;14.470;2022-12-07T10:10:37;23.90;49.60
14577;DHT22;7375;46.072;14.470;2022-12-07T10:13:05;23.80;49.90
14577;DHT22;7375;46.072;14.470;2022-12-07T10:15:44;23.80;50.00
14577;DHT22;7375;46.072;14.470;2022-12-07T10:18:21;23.80;50.40
14577;DHT22;7375;46.072;14.470;2022-12-07T10:21:01;23.60;50.50
14577;DHT22;7375;46.072;14.470;2022-12-07T10:23:28;23.60;50.60
14577;DHT22;7375;46.072;14.470;2022-12-07T10:25:54;23.60;50.60
14577;DHT22;7375;46.072;14.470;2022-12-07T10:28:21;23.60;50.60
14577;DHT22;7375;46.072;14.470;2022-12-07T10:30:49;23.50;50.40
14577;DHT22;7375;46.072;14.470;2022-12-07T10:33:30;23.60;50.80
14577;DHT22;7375;46.072;14.470;2022-12-07T10:35:57;23.50;51.00
14577;DHT22;7375;46.072;14.470;2022-12-07T10:38:26;23.30;48.40
14577;DHT22;7375;46.072;14.470;2022-12-07T10:41:04;22.90;44.60
14577;DHT22;7375;46.072;14.470;2022-12-07T10:43:32;22.60;41.20
14577;DHT22;7375;46.072;14.470;2022-12-07T10:48:45;22.50;46.30
14577;DHT22;7375;46.072;14.470;2022-12-07T10:51:18;22.70;43.90
14577;DHT22;7375;46.072;14.470;2022-12-07T10:53:53;19.40;34.20
14577;DHT22;7375;46.072;14.470;2022-12-07T10:56:29;16.70;38.00
14577;DHT22;7375;46.072;14.470;2022-12-07T10:59:04;15.60;39.90
14577;DHT22;7375;46.072;14.470;2022-12-07T11:01:38;15.00;41.30
14577;DHT22;7375;46.072;14.470;2022-12-07T11:04:19;14.90;41.40
14577;DHT22;7375;46.072;14.470;2022-12-07T11:06:51;14.30;43.10
14577;DHT22;7375;46.072;14.470;2022-12-07T11:09:29;14.30;43.10
14577;DHT22;7375;46.072;14.470;2022-12-07T11:11:59;14.30;42.90
14577;DHT22;7375;46.072;14.470;2022-12-07T11:14:43;14.30;43.70
14577;DHT22;7375;46.072;14.470;2022-12-07T11:17:13;14.20;43.60
14577;DHT22;7375;46.072;14.470;2022-12-07T11:19:47;14.00;44.40
14577;DHT22;7375;46.072;14.470;2022-12-07T11:22:18;15.90;44.70
14577;DHT22;7375;46.072;14.470;2022-12-07T11:24:50;17.40;45.40
14577;DHT22;7375;46.072;14.470;2022-12-07T11:27:27;18.30;45.00
14577;DHT22;7375;46.072;14.470;2022-12-07T11:30:16;18.90;44.60
14577;DHT22;7375;46.072;14.470;2022-12-07T11:35:43;19.40;44.80
14577;DHT22;7375;46.072;14.470;2022-12-07T11:38:13;19.50;45.20
14577;DHT22;7375;46.072;14.470;2022-12-07T11:43:40;19.70;45.80
14577;DHT22;7375;46.072;14.470;2022-12-07T11:46:08;19.80;46.10
14577;DHT22;7375;46.072;14.470;2022-12-07T11:48:37;19.90;46.50
14577;DHT22;7375;46.072;14.470;2022-12-07T11:51:04;19.90;46.70
14577;DHT22;7375;46.072;14.470;2022-12-07T11:53:43;20.00;46.90
14577;DHT22;7375;46.072;14.470;2022-12-07T11:56:19;20.00;47.20
14577;DHT22;7375;46.072;14.470;2022-12-07T11:58:51;20.00;47.60
14577;DHT22;7375;46.072;14.470;2022-12-07T12:01:26;20.10;47.70
14577;DHT22;7375;46.072;14.470;2022-12-07T12:03:56;20.10;47.80
14577;DHT22;7375;46.072;14.470;2022-12-07T12:06:25;20.20;48.00
14577;DHT22;7375;46.072;14.470;2022-12-07T12:08:53;20.20;48.10
14577;DHT22;7375;46.072;14.470;2022-12-07T12:11:30;20.30;48.30
14577;DHT22;7375;46.072;14.470;2022-12-07T12:14:08;20.30;48.40
14577;DHT22;7375;46.072;14.470;2022-12-07T12:16:54;20.40;48.50
14577;DHT22;7375;46.072;14.470;2022-12-07T12:19:27;20.40;48.60
14577;DHT22;7375;46.072;14.470;2022-12-07T12:22:01;20.40;48.80
14577;DHT22;7375;46.072;14.470;2022-12-07T12:24:30;20.40;48.90
14577;DHT22;7375;46.072;14.470;2022-12-07T12:27:06;20.40;48.90
14577;DHT22;7375;46.072;14.470;2022-12-07T12:29:37;20.50;49.20
14577;DHT22;7375;46.072;14.470;2022-12-07T12:32:06;20.50;49.20
14577;DHT22;7375;46.072;14.470;2022-12-07T12:34:38;20.50;49.30
14577;DHT22;7375;46.072;14.470;2022-12-07T12:37:14;20.50;49.50
14577;DHT22;7375;46.072;14.470;2022-12-07T12:40:12;20.50;49.60
14577;DHT22;7375;46.072;14.470;2022-12-07T12:42:58;20.40;49.70
14577;DHT22;7375;46.072;14.470;2022-12-07T12:45:27;20.50;49.90
14577;DHT22;7375;46.072;14.470;2022-12-07T12:47:55;20.50;50.00
14577;DHT22;7375;46.072;14.470;2022-12-07T12:50:23;20.50;50.10
14577;DHT22;7375;46.072;14.470;2022-12-07T12:58:31;20.50;50.50
14577;DHT22;7375;46.072;14.470;2022-12-07T13:03:52;20.40;50.70
14577;DHT22;7375;46.072;14.470;2022-12-07T13:06:27;20.40;50.80
14577;DHT22;7375;46.072;14.470;2022-12-07T13:09:01;20.40;51.00
14577;DHT22;7375;46.072;14.470;2022-12-07T13:11:28;20.40;51.20
14577;DHT22;7375;46.072;14.470;2022-12-07T13:16:39;20.40;51.60
14577;DHT22;7375;46.072;14.470;2022-12-07T13:21:53;20.40;51.80
14577;DHT22;7375;46.072;14.470;2022-12-07T13:24:20;20.40;51.90
14577;DHT22;7375;46.072;14.470;2022-12-07T13:26:47;20.30;51.90
14577;DHT22;7375;46.072;14.470;2022-12-07T13:29:15;20.30;52.10
14577;DHT22;7375;46.072;14.470;2022-12-07T13:31:43;20.30;52.10
14577;DHT22;7375;46.072;14.470;2022-12-07T13:34:30;20.30;52.20
14577;DHT22;7375;46.072;14.470;2022-12-07T13:36:58;20.30;52.30
14577;DHT22;7375;46.072;14.470;2022-12-07T13:39:26;20.30;52.40
14577;DHT22;7375;46.072;14.470;2022-12-07T13:41:54;20.30;52.50
14577;DHT22;7375;46.072;14.470;2022-12-07T13:44:22;20.30;52.60
14577;DHT22;7375;46.072;14.470;2022-12-07T13:46:51;20.30;52.70
14577;DHT22;7375;46.072;14.470;2022-12-07T13:49:23;20.20;52.70
14577;DHT22;7375;46.072;14.470;2022-12-07T13:51:51;20.30;52.90
14577;DHT22;7375;46.072;14.470;2022-12-07T13:54:19;20.30;52.90
14577;DHT22;7375;46.072;14.470;2022-12-07T13:56:47;20.20;52.90
14577;DHT22;7375;46.072;14.470;2022-12-07T13:59:16;20.20;53.00
14577;DHT22;7375;46.072;14.470;2022-12-07T14:01:44;20.20;53.10
14577;DHT22;7375;46.072;14.470;2022-12-07T14:04:31;20.20;53.20
14577;DHT22;7375;46.072;14.470;2022-12-07T14:06:58;20.20;53.30
14577;DHT22;7375;46.072;14.470;2022-12-07T14:09:28;20.20;53.30
14577;DHT22;7375;46.072;14.470;2022-12-07T14:11:55;20.20;53.40
14577;DHT22;7375;46.072;14.470;2022-12-07T14:14:23;20.10;53.50
14577;DHT22;7375;46.072;14.470;2022-12-07T14:16:55;20.10;53.60
14577;DHT22;7375;46.072;14.470;2022-12-07T14:19:40;20.10;53.70
14577;DHT22;7375;46.072;14.470;2022-12-07T14:22:07;20.10;53.70
14577;DHT22;7375;46.072;14.470;2022-12-07T14:24:42;20.10;53.80
14577;DHT22;7375;46.072;14.470;2022-12-07T14:27:16;20.10;54.00
14577;DHT22;7375;46.072;14.470;2022-12-07T14:29:43;20.10;54.00
14577;DHT22;7375;46.072;14.470;2022-12-07T14:32:18;20.00;54.00
14577;DHT22;7375;46.072;14.470;2022-12-07T14:34:53;20.10;54.10
14577;DHT22;7375;46.072;14.470;2022-12-07T14:37:19;20.00;54.10
14577;DHT22;7375;46.072;14.470;2022-12-07T14:39:47;20.00;54.10
14577;DHT22;7375;46.072;14.470;2022-12-07T14:42:14;20.00;54.20
14577;DHT22;7375;46.072;14.470;2022-12-07T14:44:41;20.00;54.30
14577;DHT22;7375;46.072;14.470;2022-12-07T14:47:08;20.00;54.30
14577;DHT22;7375;46.072;14.470;2022-12-07T14:49:35;20.00;54.40
14577;DHT22;7375;46.072;14.470;2022-12-07T14:52:02;20.00;54.50
14577;DHT22;7375;46.072;14.470;2022-12-07T14:54:29;19.90;54.50
14577;DHT22;7375;46.072;14.470;2022-12-07T14:56:58;19.90;54.50
14577;DHT22;7375;46.072;14.470;2022-12-07T14:59:25;19.90;54.50
14577;DHT22;7375;46.072;14.470;2022-12-07T15:01:52;19.90;54.60
14577;DHT22;7375;46.072;14.470;2022-12-07T15:04:18;19.90;54.70
14577;DHT22;7375;46.072;14.470;2022-12-07T15:06:54;19.90;54.80
14577;DHT22;7375;46.072;14.470;2022-12-07T15:09:20;19.90;54.80
14577;DHT22;7375;46.072;14.470;2022-12-07T15:11:47;19.90;54.90
14577;DHT22;7375;46.072;14.470;2022-12-07T15:14:15;19.90;54.90
14577;DHT22;7375;46.072;14.470;2022-12-07T15:16:42;19.90;54.90
14577;DHT22;7375;46.072;14.470;2022-12-07T15:19:13;19.90;55.00
14577;DHT22;7375;46.072;14.470;2022-12-07T15:21:41;19.90;55.10
14577;DHT22;7375;46.072;14.470;2022-12-07T15:24:08;19.90;55.20
14577;DHT22;7375;46.072;14.470;2022-12-07T15:26:35;19.80;55.10
14577;DHT22;7375;46.072;14.470;2022-12-07T15:29:02;19.80;55.20
14577;DHT22;7375;46.072;14.470;2022-12-07T15:31:30;19.80;55.30
14577;DHT22;7375;46.072;14.470;2022-12-07T15:33:57;19.80;55.60
14577;DHT22;7375;46.072;14.470;2022-12-07T15:36:24;19.80;55.80
14577;DHT22;7375;46.072;14.470;2022-12-07T15:38:51;19.90;56.20
14577;DHT22;7375;46.072;14.470;2022-12-07T15:41:18;19.80;57.10
14577;DHT22;7375;46.072;14.470;2022-12-07T15:43:45;19.90;56.70
14577;DHT22;7375;46.072;14.470;2022-12-07T15:46:31;19.80;56.30
14577;DHT22;7375;46.072;14.470;2022-12-07T15:48:58;19.80;56.40
14577;DHT22;7375;46.072;14.470;2022-12-07T15:51:25;19.80;56.40
14577;DHT22;7375;46.072;14.470;2022-12-07T15:53:52;19.80;56.60
14577;DHT22;7375;46.072;14.470;2022-12-07T15:56:19;19.80;56.50
14577;DHT22;7375;46.072;14.470;2022-12-07T15:58:46;19.90;56.60
14577;DHT22;7375;46.072;14.470;2022-12-07T16:01:13;20.10;56.60
14577;DHT22;7375;46.072;14.470;2022-12-07T16:03:42;20.10;56.70
14577;DHT22;7375;46.072;14.470;2022-12-07T16:06:09;20.20;56.60